Time;durP1;ratioP1;P1;durP2;ratioP2;P2;SDS_P1;SDS_P2;PMS_P1;PMS_P2;Temp;Humidity;BMP_temperature;BMP_pressure;BME280_temperature;BME280_humidity;BME280_pressure;Samples;Min_cycle;Max_cycle;Signal;HPM_P1;HPM_P2
2021/12/07 00:00:24;;;;;;;;;;;;;;;22.30;30.60;96933.22;4887233;29;1112;-82
2021/12/07 00:02:49;;;;;;;;;;;;;;;22.46;31.43;96917.91;4902245;29;1958;-81
2021/12/07 00:05:15;;;;;;;;;;;;;;;22.67;31.11;96913.28;4902777;29;887;-80
2021/12/07 00:07:43;;;;;;;;;;;;;;;22.87;30.70;96907.03;4887832;29;840;-81
2021/12/07 00:10:08;;;;;;;;;;;;;;;22.73;30.20;96902.06;4883639;29;1118;-83
2021/12/07 00:12:38;;;;;;;;;;;;;;;22.43;30.42;96901.84;4876418;29;1022;-83
2021/12/07 00:15:03;;;;;;;;;;;;;;;22.44;30.22;96908.34;4865183;29;938;-84
2021/12/07 00:20:15;;;;;;;;;;;;;;;22.26;31.56;96909.94;4997385;28;1237;-78
2021/12/07 00:22:41;;;;;;;;;;;;;;;22.69;30.64;96893.75;4959498;29;1875;-81
2021/12/07 00:25:07;;;;;;;;;;;;;;;22.80;30.24;96902.53;4958712;29;982;-83
2021/12/07 00:27:33;;;;;;;;;;;;;;;22.43;30.71;96895.41;4959735;29;1093;-82
2021/12/07 00:29:58;;;;;;;;;;;;;;;22.42;30.49;96905.16;4901935;29;1311;-83
2021/12/07 00:37:42;;;;;;;;;;;;;;;22.04;30.74;96915.00;4846723;29;1213;-84
2021/12/07 00:40:08;;;;;;;;;;;;;;;22.28;31.17;96915.94;4791613;30;1000;-83
2021/12/07 00:42:35;;;;;;;;;;;;;;;22.72;30.70;96915.47;4791689;30;1881;-82
2021/12/07 00:45:01;;;;;;;;;;;;;;;22.87;30.31;96912.72;4738556;30;1474;-82
2021/12/07 00:47:27;;;;;;;;;;;;;;;22.55;30.64;96909.38;4738720;30;992;-83
2021/12/07 00:49:54;;;;;;;;;;;;;;;22.32;30.55;96915.75;4723600;30;1088;-78
2021/12/07 00:52:19;;;;;;;;;;;;;;;22.20;30.64;96916.72;4739094;30;1012;-83
2021/12/07 00:54:47;;;;;;;;;;;;;;;22.43;30.31;96921.69;4721095;30;967;-82
2021/12/07 00:57:13;;;;;;;;;;;;;;;22.24;30.44;96917.34;4707226;30;958;-84
2021/12/07 00:59:38;;;;;;;;;;;;;;;22.14;31.71;96908.09;4720708;30;1312;-82
2021/12/07 01:02:05;;;;;;;;;;;;;;;22.69;31.04;96913.59;4757508;30;1962;-83
2021/12/07 01:04:31;;;;;;;;;;;;;;;22.92;30.49;96914.94;4773625;30;932;-82
2021/12/07 01:09:33;;;;;;;;;;;;;;;22.41;30.52;96898.72;4723631;30;977;-82
2021/12/07 01:25:40;;;;;;;;;;;;;;;22.43;30.04;96873.50;4884783;29;946;-80
2021/12/07 01:28:18;;;;;;;;;;;;;;;22.38;30.16;96864.88;4920013;29;979;-83
2021/12/07 01:47:43;;;;;;;;;;;;;;;22.70;30.92;96824.44;4938988;29;934;-81
2021/12/07 02:01:03;;;;;;;;;;;;;;;22.28;31.13;96798.97;4882510;29;1231;-77
2021/12/07 02:03:29;;;;;;;;;;;;;;;22.66;31.14;96794.69;4865352;29;1883;-81
2021/12/07 02:05:55;;;;;;;;;;;;;;;22.89;30.11;96810.94;4882526;29;1021;-78
2021/12/07 02:08:21;;;;;;;;;;;;;;;22.24;31.05;96807.63;4850931;29;1127;-81
2021/12/07 02:10:47;;;;;;;;;;;;;;;22.48;30.16;96806.88;4880983;29;1106;-78
2021/12/07 02:14:00;;;;;;;;;;;;;;;22.29;30.50;96818.31;4873676;29;1180;-80
2021/12/07 02:16:04;;;;;;;;;;;;;;;22.39;31.17;96809.78;4886028;29;1150;-79
2021/12/07 02:18:31;;;;;;;;;;;;;;;22.70;30.55;96807.41;4862300;29;1260;-81
2021/12/07 02:20:57;;;;;;;;;;;;;;;22.88;30.06;96807.31;4868121;29;1028;-77
2021/12/07 02:23:23;;;;;;;;;;;;;;;22.61;30.11;96804.63;4865747;29;1946;-78
2021/12/07 02:25:48;;;;;;;;;;;;;;;22.42;30.59;96808.81;4867884;29;1490;-80
2021/12/07 02:28:15;;;;;;;;;;;;;;;22.25;30.48;96803.53;4865285;29;1118;-79
2021/12/07 02:30:41;;;;;;;;;;;;;;;22.31;30.32;96803.66;4885493;29;1269;-76
2021/12/07 02:33:07;;;;;;;;;;;;;;;22.21;30.44;96805.75;4853789;29;1238;-81
2021/12/07 02:35:32;;;;;;;;;;;;;;;22.56;31.27;96808.91;4902031;29;1093;-79
2021/12/07 02:38:01;;;;;;;;;;;;;;;22.84;30.39;96795.31;4903513;29;1045;-81
2021/12/07 02:40:30;;;;;;;;;;;;;;;22.31;30.62;96793.09;4904276;29;1135;-78
2021/12/07 02:42:55;;;;;;;;;;;;;;;22.38;30.06;96791.19;4922685;29;1980;-80
2021/12/07 02:45:22;;;;;;;;;;;;;;;22.17;30.54;96788.13;4938778;29;1168;-80
2021/12/07 02:47:47;;;;;;;;;;;;;;;22.35;30.08;96788.06;4925498;29;1138;-81
2021/12/07 02:50:13;;;;;;;;;;;;;;;22.55;30.96;96772.53;4922514;29;1379;-80
2021/12/07 02:52:40;;;;;;;;;;;;;;;22.72;30.57;96779.34;4866185;29;1317;-81
2021/12/07 02:55:07;;;;;;;;;;;;;;;22.63;30.16;96773.72;4866272;29;1231;-81
2021/12/07 02:57:34;;;;;;;;;;;;;;;22.37;30.24;96779.06;4797620;30;1319;-80
2021/12/07 03:00:07;;;;;;;;;;;;;;;22.31;30.07;96770.44;4808347;29;1258;-81
2021/12/07 03:02:39;;;;;;;;;;;;;;;22.30;30.05;96760.38;4812221;29;1888;-81
2021/12/07 03:05:28;;;;;;;;;;;;;;;22.27;31.09;96764.16;4759846;30;1549;-80
2021/12/07 03:26:38;;;;;;;;;;;;;;;22.77;30.15;96747.50;4893618;29;1072;-79
2021/12/07 03:29:03;;;;;;;;;;;;;;;22.61;29.98;96753.59;4905944;29;1195;-78
2021/12/07 03:31:30;;;;;;;;;;;;;;;22.30;30.35;96768.88;4906335;29;1268;-80
2021/12/07 03:33:57;;;;;;;;;;;;;;;22.35;30.14;96764.59;4865020;29;1176;-78
2021/12/07 03:36:25;;;;;;;;;;;;;;;22.16;30.19;96760.28;4850980;29;1241;-80
2021/12/07 03:38:52;;;;;;;;;;;;;;;22.56;31.01;96762.75;4813243;29;1319;-78
2021/12/07 03:41:17;;;;;;;;;;;;;;;22.81;30.32;96756.59;4822296;29;1099;-80
2021/12/07 03:43:43;;;;;;;;;;;;;;;22.75;29.84;96746.41;4828467;29;1923;-80
2021/12/07 03:46:09;;;;;;;;;;;;;;;22.38;30.25;96755.13;4829514;29;1284;-80
2021/12/07 03:48:35;;;;;;;;;;;;;;;22.19;30.54;96751.63;4828558;29;900;-81
2021/12/07 03:51:04;;;;;;;;;;;;;;;22.23;30.43;96772.06;4829641;29;1327;-78
2021/12/07 03:53:29;;;;;;;;;;;;;;;22.31;31.08;96764.75;4843324;29;1232;-78
2021/12/07 03:55:56;;;;;;;;;;;;;;;22.70;30.77;96764.88;4844636;29;1140;-80
2021/12/07 03:58:22;;;;;;;;;;;;;;;22.91;30.15;96765.88;4854414;29;1161;-80
2021/12/07 04:00:47;;;;;;;;;;;;;;;23.00;29.72;96765.00;4847634;29;1239;-80
2021/12/07 04:03:15;;;;;;;;;;;;;;;22.76;29.84;96762.94;4845829;29;1915;-80
2021/12/07 04:05:47;;;;;;;;;;;;;;;22.43;30.27;96759.34;4828751;29;990;-79
2021/12/07 04:08:16;;;;;;;;;;;;;;;22.35;30.17;96758.94;4816784;29;1240;-81
2021/12/07 04:10:43;;;;;;;;;;;;;;;22.41;30.02;96750.56;4810377;29;1019;-79
2021/12/07 04:13:08;;;;;;;;;;;;;;;22.32;30.12;96749.31;4824756;29;967;-81
2021/12/07 04:15:33;;;;;;;;;;;;;;;22.27;30.13;96752.81;4791190;30;960;-79
2021/12/07 04:17:59;;;;;;;;;;;;;;;22.41;29.89;96754.19;5131669;23;4244;-81
2021/12/07 04:20:25;;;;;;;;;;;;;;;22.23;30.41;96746.56;4961599;29;1211;-79
2021/12/07 04:22:51;;;;;;;;;;;;;;;22.31;30.03;96750.59;4958728;29;1962;-81
2021/12/07 04:25:17;;;;;;;;;;;;;;;22.45;30.62;96748.34;4958701;28;897;-82
2021/12/07 04:27:43;;;;;;;;;;;;;;;22.74;30.57;96747.66;4958924;29;902;-81
2021/12/07 04:30:10;;;;;;;;;;;;;;;22.80;30.07;96745.75;4994736;23;3794;-79
2021/12/07 04:32:36;;;;;;;;;;;;;;;22.48;30.12;96755.84;4981157;28;932;-82
2021/12/07 04:35:01;;;;;;;;;;;;;;;22.44;30.33;96752.44;4980148;28;1068;-81
2021/12/07 04:37:27;;;;;;;;;;;;;;;22.24;30.48;96753.78;4981230;28;910;-82
2021/12/07 04:39:52;;;;;;;;;;;;;;;22.30;30.82;96746.19;4977296;29;958;-80
2021/12/07 04:42:18;;;;;;;;;;;;;;;22.80;30.20;96752.22;4996562;28;1891;-81
2021/12/07 04:44:50;;;;;;;;;;;;;;;22.95;29.76;96743.78;4996398;28;1591;-81
2021/12/07 04:47:24;;;;;;;;;;;;;;;22.64;29.76;96758.31;4977837;28;987;-81
2021/12/07 04:50:20;;;;;;;;;;;;;;;22.33;29.99;96756.59;4976718;28;909;-82
2021/12/07 04:58:06;;;;;;;;;;;;;;;22.54;30.99;96743.41;4977453;28;968;-80
2021/12/07 05:00:31;;;;;;;;;;;;;;;22.85;30.14;96733.75;4958322;28;1128;-80
2021/12/07 05:03:04;;;;;;;;;;;;;;;22.70;29.96;96744.25;4947982;29;1888;-82
2021/12/07 05:05:33;;;;;;;;;;;;;;;22.40;30.29;96734.81;4958479;28;1019;-81
2021/12/07 05:08:02;;;;;;;;;;;;;;;22.34;30.17;96740.38;4957624;29;987;-80
2021/12/07 05:10:35;;;;;;;;;;;;;;;22.25;30.43;96744.03;4900049;29;931;-79
2021/12/07 05:40:06;;;;;;;;;;;;;;;22.86;29.78;96741.75;4919463;29;1077;-81
2021/12/07 05:42:32;;;;;;;;;;;;;;;22.29;30.43;96738.97;4920110;29;1950;-82
2021/12/07 05:44:57;;;;;;;;;;;;;;;22.22;30.56;96753.47;4919470;29;894;-81
2021/12/07 05:47:23;;;;;;;;;;;;;;;22.23;30.39;96740.13;4926497;29;990;-82
2021/12/07 05:49:48;;;;;;;;;;;;;;;22.29;30.13;96733.31;4925823;29;899;-81
2021/12/07 05:52:14;;;;;;;;;;;;;;;22.61;30.96;96742.25;4926578;29;947;-82
2021/12/07 05:54:39;;;;;;;;;;;;;;;22.79;30.50;96736.44;4907190;29;1037;-80
2021/12/07 05:57:05;;;;;;;;;;;;;;;22.75;30.21;96737.91;4907531;29;1029;-81
2021/12/07 05:59:30;;;;;;;;;;;;;;;22.47;30.54;96738.06;4907095;29;913;-81
2021/12/07 06:01:56;;;;;;;;;;;;;;;22.43;30.46;96736.69;4907387;29;990;-82
2021/12/07 06:04:21;;;;;;;;;;;;;;;22.30;30.40;96737.69;4906779;29;1892;-82
2021/12/07 06:06:46;;;;;;;;;;;;;;;22.19;30.57;96728.94;4892154;29;1369;-82
2021/12/07 06:09:12;;;;;;;;;;;;;;;22.69;30.74;96723.63;4888361;29;986;-82
2021/12/07 06:11:37;;;;;;;;;;;;;;;22.86;30.35;96730.41;4906587;29;1189;-81
2021/12/07 06:14:03;;;;;;;;;;;;;;;22.58;30.22;96726.19;4887709;29;1236;-81
2021/12/07 06:16:31;;;;;;;;;;;;;;;22.43;30.23;96731.00;4883780;29;1052;-81
2021/12/07 06:18:56;;;;;;;;;;;;;;;22.40;30.66;96732.00;4850859;29;1813;-77
2021/12/07 06:21:22;;;;;;;;;;;;;;;21.96;31.72;96733.25;4838839;29;1957;-68
2021/12/07 06:23:47;;;;;;;;;;;;;;;22.44;31.45;96727.72;4836864;29;1984;-68
2021/12/07 06:26:12;;;;;;;;;;;;;;;21.66;33.43;96729.44;4839935;29;1621;-67
2021/12/07 06:28:38;;;;;;;;;;;;;;;21.65;34.01;96725.03;4817777;29;1989;-67
2021/12/07 06:31:03;;;;;;;;;;;;;;;21.67;34.49;96733.84;4848384;29;1643;-68
2021/12/07 06:33:29;;;;;;;;;;;;;;;22.17;33.84;96742.00;4847064;29;1716;-70
2021/12/07 06:35:59;;;;;;;;;;;;;;;22.34;34.26;96724.16;4845193;29;1874;-72
2021/12/07 06:38:25;;;;;;;;;;;;;;;22.53;33.70;96721.19;4848074;29;1625;-72
2021/12/07 06:40:50;;;;;;;;;;;;;;;22.57;33.52;96716.91;4862685;29;1864;-74
2021/12/07 06:43:15;;;;;;;;;;;;;;;22.32;34.34;96715.31;4865845;29;1970;-71
2021/12/07 06:45:41;;;;;;;;;;;;;;;22.07;35.01;96710.06;4864649;29;2057;-68
2021/12/07 06:48:07;;;;;;;;;;;;;;;21.80;35.42;96714.59;4826268;29;1842;-70
2021/12/07 06:50:32;;;;;;;;;;;;;;;22.25;34.91;96715.69;4828984;29;1966;-74
2021/12/07 06:52:58;;;;;;;;;;;;;;;22.06;35.40;96714.16;4928009;29;1923;-73
2021/12/07 06:55:23;;;;;;;;;;;;;;;21.99;35.27;96714.53;4942366;29;989;-73
2021/12/07 06:57:49;;;;;;;;;;;;;;;22.22;34.98;96719.47;4940064;29;921;-74
2021/12/07 07:00:14;;;;;;;;;;;;;;;22.18;34.79;96699.06;4939262;29;921;-73
2021/12/07 07:02:40;;;;;;;;;;;;;;;22.13;34.75;96705.38;4939251;29;1910;-73
2021/12/07 07:05:05;;;;;;;;;;;;;;;22.16;34.81;96707.22;4939161;29;1030;-73
2021/12/07 07:07:33;;;;;;;;;;;;;;;22.26;34.68;96697.41;4923189;29;958;-73
2021/12/07 07:09:59;;;;;;;;;;;;;;;22.28;34.27;96694.13;4935508;29;1143;-73
2021/12/07 07:12:24;;;;;;;;;;;;;;;22.16;34.81;96690.22;4929584;29;1041;-73
2021/12/07 07:14:49;;;;;;;;;;;;;;;22.01;35.12;96683.66;4922714;29;1231;-72
2021/12/07 07:17:15;;;;;;;;;;;;;;;22.03;35.07;96672.66;4919885;29;1002;-73
2021/12/07 07:19:40;;;;;;;;;;;;;;;21.96;35.37;96667.34;4949898;28;1530;-73
2021/12/07 07:22:06;;;;;;;;;;;;;;;22.03;35.20;96661.34;4969722;28;1535;-73
2021/12/07 07:24:31;;;;;;;;;;;;;;;21.98;35.19;96667.66;4969048;28;1914;-73
2021/12/07 07:26:57;;;;;;;;;;;;;;;22.03;35.12;96658.50;4942007;28;1505;-73
2021/12/07 07:29:23;;;;;;;;;;;;;;;21.88;35.46;96671.78;4964856;28;1290;-73
2021/12/07 07:31:48;;;;;;;;;;;;;;;22.25;34.93;96670.34;4960561;28;1669;-77
2021/12/07 07:34:13;;;;;;;;;;;;;;;21.96;35.57;96664.50;4972724;28;1700;-74
2021/12/07 07:36:39;;;;;;;;;;;;;;;22.74;34.17;96677.59;4940212;28;1785;-76
2021/12/07 07:39:04;;;;;;;;;;;;;;;23.49;33.16;96669.97;4974274;28;1740;-73
2021/12/07 07:41:30;;;;;;;;;;;;;;;23.44;32.97;96671.44;4973253;28;1680;-75
2021/12/07 07:43:55;;;;;;;;;;;;;;;23.15;33.57;96669.34;4974651;28;2009;-73
2021/12/07 07:46:24;;;;;;;;;;;;;;;23.11;33.77;96675.25;4956902;28;1605;-72
2021/12/07 07:48:49;;;;;;;;;;;;;;;22.60;34.59;96672.66;4956235;29;1266;-75
2021/12/07 07:51:15;;;;;;;;;;;;;;;22.35;34.61;96677.53;4956150;29;1286;-70
2021/12/07 07:53:50;;;;;;;;;;;;;;;22.31;35.06;96678.97;5092373;27;1489;-71
2021/12/07 07:56:17;;;;;;;;;;;;;;;22.24;35.29;96685.00;5092035;28;1197;-72
2021/12/07 07:58:42;;;;;;;;;;;;;;;22.78;34.47;96700.06;5088644;28;1608;-71
2021/12/07 08:05:44;;;;;;;;;;;;;;;22.81;33.88;96671.53;5065905;28;1771;-74
2021/12/07 08:08:14;;;;;;;;;;;;;;;23.20;33.17;96674.34;5035245;28;1178;-73
2021/12/07 08:10:39;;;;;;;;;;;;;;;23.24;34.11;96674.94;5047170;28;1859;-74
2021/12/07 08:13:05;;;;;;;;;;;;;;;23.39;32.46;96669.28;5042940;28;984;-72
2021/12/07 08:15:31;;;;;;;;;;;;;;;23.59;32.29;96679.94;5040774;28;1684;-73
2021/12/07 08:17:57;;;;;;;;;;;;;;;23.49;32.56;96681.31;5000812;28;1880;-71
2021/12/07 08:20:26;;;;;;;;;;;;;;;23.45;32.81;96677.88;4981899;28;1837;-73
2021/12/07 08:22:51;;;;;;;;;;;;;;;23.42;32.90;96678.88;4999089;28;1847;-76
2021/12/07 08:27:17;;;;;;;;;;;;;;;23.40;32.33;96665.94;5058613;28;1384;-70
2021/12/07 08:31:13;;;;;;;;;;;;;;;23.91;31.78;96661.13;5084720;27;1663;-74
2021/12/07 08:35:51;;;;;;;;;;;;;;;23.66;32.10;96668.22;5066447;28;1701;-75
2021/12/07 08:38:17;;;;;;;;;;;;;;;23.17;33.23;96658.31;5065795;28;1000;-71
2021/12/07 08:40:43;;;;;;;;;;;;;;;23.18;32.33;96659.09;5074251;28;770;-83
2021/12/07 08:43:11;;;;;;;;;;;;;;;23.05;32.39;96656.53;5089135;28;1772;-82
2021/12/07 08:45:37;;;;;;;;;;;;;;;22.91;32.44;96646.75;5076739;28;1070;-82
2021/12/07 08:48:03;;;;;;;;;;;;;;;23.01;31.86;96638.94;5074031;28;1962;-81
2021/12/07 08:50:29;;;;;;;;;;;;;;;22.84;32.05;96647.84;5053750;28;1905;-78
2021/12/07 08:52:55;;;;;;;;;;;;;;;22.83;31.87;96643.47;5045776;28;1871;-81
2021/12/07 09:00:48;;;;;;;;;;;;;;;22.84;31.22;96630.06;5002832;28;1808;-81
2021/12/07 09:03:13;;;;;;;;;;;;;;;22.70;31.32;96620.28;5002626;28;1655;-80
2021/12/07 09:05:39;;;;;;;;;;;;;;;22.58;31.47;96609.97;4990834;28;950;-81
2021/12/07 09:08:04;;;;;;;;;;;;;;;21.02;31.52;96376.03;4995505;28;964;-80
2021/12/07 09:10:30;;;;;;;;;;;;;;;22.45;31.21;96592.44;4996790;28;1037;-81
2021/12/07 09:12:55;;;;;;;;;;;;;;;22.41;31.13;96569.19;4995934;28;966;-81
2021/12/07 09:15:21;;;;;;;;;;;;;;;22.66;30.72;96562.19;4919610;29;1974;-82
2021/12/07 09:17:46;;;;;;;;;;;;;;;22.56;31.10;96564.31;4904180;29;959;-79
2021/12/07 09:20:15;;;;;;;;;;;;;;;22.57;30.82;96560.22;4880886;29;1010;-82
2021/12/07 09:22:41;;;;;;;;;;;;;;;22.55;30.70;96554.25;4869533;29;1059;-82
2021/12/07 09:25:06;;;;;;;;;;;;;;;22.38;30.86;96559.56;4868121;29;1027;-79
2021/12/07 09:27:32;;;;;;;;;;;;;;;22.40;30.73;96556.28;4868070;29;926;-80
2021/12/07 09:29:57;;;;;;;;;;;;;;;22.52;30.54;96552.38;4880688;29;1153;-79
2021/12/07 09:32:23;;;;;;;;;;;;;;;22.42;30.83;96554.50;4863624;29;972;-81
2021/12/07 09:34:48;;;;;;;;;;;;;;;22.46;30.74;96560.00;4890682;29;1915;-82
2021/12/07 09:37:14;;;;;;;;;;;;;;;22.42;30.45;96563.00;4943880;29;1018;-83
2021/12/07 09:39:39;;;;;;;;;;;;;;;22.40;30.80;96561.94;4966648;29;837;-82
2021/12/07 09:42:05;;;;;;;;;;;;;;;22.31;30.62;96560.75;4967069;29;969;-83
2021/12/07 09:44:30;;;;;;;;;;;;;;;22.26;30.65;96558.56;4966073;29;981;-83
2021/12/07 09:46:56;;;;;;;;;;;;;;;22.20;30.91;96554.06;4986784;28;978;-84
2021/12/07 09:49:21;;;;;;;;;;;;;;;22.31;30.33;96565.63;4990203;28;1982;-83
2021/12/07 09:51:46;;;;;;;;;;;;;;;22.26;30.35;96564.25;4999818;28;1626;-84
2021/12/07 09:54:12;;;;;;;;;;;;;;;22.28;30.34;96564.56;4991904;28;1910;-84
2021/12/07 09:56:38;;;;;;;;;;;;;;;22.24;30.37;96575.28;4993365;28;895;-82
2021/12/07 09:59:03;;;;;;;;;;;;;;;22.67;31.87;96570.19;4990454;28;955;-83
2021/12/07 10:01:29;;;;;;;;;;;;;;;22.79;32.21;96560.63;4991848;28;998;-81
2021/12/07 10:03:54;;;;;;;;;;;;;;;22.79;32.74;96559.84;5018394;28;991;-83
2021/12/07 10:06:20;;;;;;;;;;;;;;;22.76;33.50;96561.59;5034736;28;982;-83
2021/12/07 10:08:46;;;;;;;;;;;;;;;22.69;33.25;96562.00;5066273;28;1033;-83
2021/12/07 10:11:11;;;;;;;;;;;;;;;22.30;33.23;96559.19;5052543;28;923;-83
2021/12/07 10:13:38;;;;;;;;;;;;;;;22.60;32.03;96553.56;5028102;28;1918;-82
2021/12/07 10:16:04;;;;;;;;;;;;;;;22.47;32.15;96553.06;5033535;28;858;-83
2021/12/07 10:18:31;;;;;;;;;;;;;;;22.47;31.81;96550.22;5009054;28;1158;-83
2021/12/07 10:21:10;;;;;;;;;;;;;;;22.54;31.55;96549.88;5013735;28;1014;-82
2021/12/07 10:23:46;;;;;;;;;;;;;;;22.26;31.95;96557.78;5011243;28;1882;-83
2021/12/07 10:26:16;;;;;;;;;;;;;;;22.36;31.51;96548.75;4982073;28;1946;-85
2021/12/07 10:28:49;;;;;;;;;;;;;;;22.31;31.37;96554.28;4971041;28;1004;-83
2021/12/07 10:31:29;;;;;;;;;;;;;;;22.23;31.57;96548.22;4972972;29;986;-82
2021/12/07 10:33:58;;;;;;;;;;;;;;;22.33;31.33;96541.22;4964587;29;1891;-82
2021/12/07 10:36:28;;;;;;;;;;;;;;;22.29;31.33;96542.66;4970779;29;954;-84
2021/12/07 10:38:57;;;;;;;;;;;;;;;22.23;30.88;96542.56;4975830;28;2050;-83
2021/12/07 10:41:24;;;;;;;;;;;;;;;22.74;31.67;96535.00;4976203;28;982;-83
2021/12/07 10:43:50;;;;;;;;;;;;;;;22.77;32.63;96517.78;4974877;28;1014;-82
2021/12/07 10:46:38;;;;;;;;;;;;;;;22.73;33.07;96511.53;4973974;29;997;-81
2021/12/07 10:49:14;;;;;;;;;;;;;;;22.74;33.32;96512.31;4933963;29;1048;-82
2021/12/07 10:51:40;;;;;;;;;;;;;;;22.27;33.32;96511.97;4948242;29;981;-83
2021/12/07 10:54:06;;;;;;;;;;;;;;;22.24;32.54;96510.13;4971707;29;1950;-83
2021/12/07 10:56:35;;;;;;;;;;;;;;;22.34;31.95;96503.09;4960789;28;981;-81
2021/12/07 10:59:07;;;;;;;;;;;;;;;22.48;31.71;96500.75;4958946;29;1118;-80
2021/12/07 11:01:36;;;;;;;;;;;;;;;22.35;31.51;96490.50;4960461;28;1068;-83
2021/12/07 11:04:17;;;;;;;;;;;;;;;22.22;32.03;96495.66;4960910;29;1034;-81
2021/12/07 11:07:01;;;;;;;;;;;;;;;22.22;31.54;96494.88;4961680;29;960;-81
2021/12/07 11:09:26;;;;;;;;;;;;;;;22.23;31.53;96497.22;4958826;29;1006;-82
2021/12/07 11:12:04;;;;;;;;;;;;;;;22.11;31.77;96484.09;4951788;29;1029;-82
2021/12/07 11:14:37;;;;;;;;;;;;;;;22.31;31.33;96483.47;4950862;29;1980;-83
2021/12/07 11:17:03;;;;;;;;;;;;;;;21.79;32.17;96492.19;4952866;29;971;-85
2021/12/07 11:19:29;;;;;;;;;;;;;;;22.14;31.35;96488.03;4955980;29;1720;-82
2021/12/07 11:21:54;;;;;;;;;;;;;;;22.32;30.68;96494.28;4950442;28;1847;-83
2021/12/07 11:24:20;;;;;;;;;;;;;;;22.23;30.96;96488.72;4923626;29;1149;-82
2021/12/07 11:29:42;;;;;;;;;;;;;;;22.56;32.53;96491.41;4988857;28;1821;-83
2021/12/07 11:32:08;;;;;;;;;;;;;;;22.67;32.84;96484.38;4959809;28;953;-82
2021/12/07 11:34:39;;;;;;;;;;;;;;;22.73;33.24;96483.19;4982916;28;1989;-81
2021/12/07 11:37:04;;;;;;;;;;;;;;;22.38;32.81;96480.22;4971032;28;1538;-81
2021/12/07 11:39:35;;;;;;;;;;;;;;;22.10;33.03;96488.19;4983625;28;1210;-81
2021/12/07 11:42:02;;;;;;;;;;;;;;;22.31;31.90;96480.63;4981783;28;965;-81
2021/12/07 11:44:27;;;;;;;;;;;;;;;22.39;31.58;96478.19;4981112;28;1535;-81
2021/12/07 11:46:53;;;;;;;;;;;;;;;22.40;31.27;96488.25;4959073;28;1000;-81
2021/12/07 11:49:20;;;;;;;;;;;;;;;22.40;31.45;96483.38;5004112;28;1964;-80
2021/12/07 11:51:46;;;;;;;;;;;;;;;22.01;31.67;96476.91;4969306;28;996;-81
2021/12/07 11:54:11;;;;;;;;;;;;;;;22.29;31.25;96472.63;4964407;28;1974;-80
2021/12/07 11:56:37;;;;;;;;;;;;;;;22.35;31.13;96470.66;4988895;28;983;-81
2021/12/07 11:59:03;;;;;;;;;;;;;;;22.21;31.33;96470.63;4988873;28;1015;-82
2021/12/07 12:01:28;;;;;;;;;;;;;;;22.20;31.16;96467.03;4991393;28;1665;-81
2021/12/07 12:03:53;;;;;;;;;;;;;;;22.30;31.41;96468.50;4997656;28;1990;-81
2021/12/07 12:06:19;;;;;;;;;;;;;;;22.62;32.12;96465.97;4996364;28;2314;-83
2021/12/07 12:08:44;;;;;;;;;;;;;;;22.69;32.48;96471.28;4989373;28;2145;-77
2021/12/07 12:11:19;;;;;;;;;;;;;;;22.72;32.70;96458.16;4954635;29;978;-82
2021/12/07 12:13:51;;;;;;;;;;;;;;;22.86;32.91;96455.31;4905943;29;1903;-81
2021/12/07 12:16:25;;;;;;;;;;;;;;;22.30;32.54;96456.41;4914304;29;988;-83
2021/12/07 12:19:09;;;;;;;;;;;;;;;22.27;32.24;96458.13;4874122;29;931;-82
2021/12/07 12:21:55;;;;;;;;;;;;;;;22.15;31.94;96461.25;4876129;29;917;-82
2021/12/07 12:24:21;;;;;;;;;;;;;;;22.20;31.73;96464.19;4911103;29;1381;-81
2021/12/07 12:26:49;;;;;;;;;;;;;;;22.22;31.72;96461.66;4944617;29;1903;-82
2021/12/07 12:29:16;;;;;;;;;;;;;;;22.25;31.64;96460.69;4967837;29;1062;-81
2021/12/07 12:31:43;;;;;;;;;;;;;;;22.20;31.47;96464.19;4930832;29;987;-82
2021/12/07 12:34:19;;;;;;;;;;;;;;;22.24;31.31;96459.13;4890957;29;1976;-82
2021/12/07 12:36:58;;;;;;;;;;;;;;;22.42;32.31;96465.88;4893352;29;1021;-82
2021/12/07 12:39:42;;;;;;;;;;;;;;;22.60;32.69;96452.31;4891857;29;999;-81
2021/12/07 12:42:08;;;;;;;;;;;;;;;22.71;32.62;96451.72;4901750;29;1324;-82
2021/12/07 12:44:34;;;;;;;;;;;;;;;22.44;32.50;96454.84;4898795;29;971;-82
2021/12/07 12:46:59;;;;;;;;;;;;;;;22.27;32.28;96452.47;4920446;29;1102;-82
2021/12/07 12:49:31;;;;;;;;;;;;;;;22.31;31.57;96458.72;4931616;29;1029;-82
2021/12/07 12:51:56;;;;;;;;;;;;;;;22.24;31.63;96452.69;4933611;29;821;-83
2021/12/07 12:54:22;;;;;;;;;;;;;;;22.38;31.07;96445.44;4931357;29;1961;-82
2021/12/07 12:56:47;;;;;;;;;;;;;;;22.26;31.26;96450.13;4933362;29;1014;-81
2021/12/07 12:59:13;;;;;;;;;;;;;;;22.31;31.08;96458.72;4931634;29;979;-82
2021/12/07 13:01:39;;;;;;;;;;;;;;;22.14;31.35;96446.31;4937011;29;942;-83
2021/12/07 13:04:04;;;;;;;;;;;;;;;22.16;31.16;96463.59;4974644;28;1014;-83
2021/12/07 13:06:33;;;;;;;;;;;;;;;22.49;31.97;96425.81;5030928;28;925;-83
2021/12/07 13:09:00;;;;;;;;;;;;;;;22.62;32.28;96421.41;5027824;28;875;-82
2021/12/07 13:11:31;;;;;;;;;;;;;;;22.84;31.89;96398.28;4991004;28;1014;-82
2021/12/07 13:13:56;;;;;;;;;;;;;;;22.76;32.03;96380.13;4988993;28;1891;-83
2021/12/07 13:16:25;;;;;;;;;;;;;;;22.31;32.09;96392.78;5008306;28;903;-82
2021/12/07 13:18:58;;;;;;;;;;;;;;;22.26;31.86;96401.97;5007348;28;1005;-81
2021/12/07 13:21:25;;;;;;;;;;;;;;;22.00;32.00;96405.34;5012029;28;925;-83
2021/12/07 13:23:57;;;;;;;;;;;;;;;22.12;31.44;96411.22;4971625;28;985;-83
2021/12/07 13:26:24;;;;;;;;;;;;;;;22.28;31.13;96420.06;4975471;29;1342;-81
2021/12/07 13:29:00;;;;;;;;;;;;;;;22.29;30.88;96410.28;4972115;28;1008;-82
2021/12/07 13:31:32;;;;;;;;;;;;;;;22.15;31.32;96422.38;4971015;29;1308;-82
2021/12/07 13:33:57;;;;;;;;;;;;;;;22.23;31.16;96429.25;4952669;29;1944;-81
2021/12/07 13:36:35;;;;;;;;;;;;;;;22.03;31.29;96420.59;4955270;29;1210;-83
2021/12/07 13:39:12;;;;;;;;;;;;;;;22.06;31.29;96428.09;4952894;29;968;-83
2021/12/07 13:41:46;;;;;;;;;;;;;;;22.44;32.25;96426.50;4962759;28;925;-82
2021/12/07 13:44:12;;;;;;;;;;;;;;;22.56;32.07;96426.19;4991760;28;976;-83
2021/12/07 13:46:37;;;;;;;;;;;;;;;22.79;31.65;96421.66;4955440;29;996;-82
2021/12/07 13:49:07;;;;;;;;;;;;;;;22.60;31.44;96417.50;4953766;29;977;-81
2021/12/07 13:51:32;;;;;;;;;;;;;;;22.29;31.67;96404.63;4993847;28;1031;-83
2021/12/07 13:54:00;;;;;;;;;;;;;;;22.12;31.63;96400.69;4991214;28;1910;-82
2021/12/07 13:56:26;;;;;;;;;;;;;;;22.14;31.71;96403.81;4962028;28;1134;-81
2021/12/07 13:58:54;;;;;;;;;;;;;;;22.06;31.67;96402.59;4952015;29;1008;-80
2021/12/07 14:01:19;;;;;;;;;;;;;;;22.24;31.18;96408.13;4964760;29;982;-83
2021/12/07 14:03:45;;;;;;;;;;;;;;;22.15;31.27;96399.72;4970498;29;941;-83
2021/12/07 14:06:10;;;;;;;;;;;;;;;22.08;31.59;96402.91;4975386;29;927;-83
2021/12/07 14:08:36;;;;;;;;;;;;;;;22.18;31.22;96410.09;4954730;29;939;-83
2021/12/07 14:11:01;;;;;;;;;;;;;;;22.04;31.52;96405.16;4975657;29;855;-83
2021/12/07 14:13:27;;;;;;;;;;;;;;;22.41;31.98;96404.81;4970602;28;1057;-82
2021/12/07 14:15:52;;;;;;;;;;;;;;;22.60;31.93;96383.50;4974532;28;1946;-81
2021/12/07 14:18:19;;;;;;;;;;;;;;;22.76;31.72;96391.47;4987489;28;1037;-82
2021/12/07 14:20:49;;;;;;;;;;;;;;;22.48;31.80;96398.72;4993860;28;922;-82
2021/12/07 14:23:24;;;;;;;;;;;;;;;22.25;31.99;96392.69;5006213;28;922;-83
2021/12/07 14:25:50;;;;;;;;;;;;;;;22.24;31.19;96398.84;4941855;29;1036;-82
2021/12/07 14:28:25;;;;;;;;;;;;;;;22.30;31.33;96389.16;4971461;29;1375;-83
2021/12/07 14:30:51;;;;;;;;;;;;;;;22.39;31.03;96396.03;5010200;28;991;-81
2021/12/07 14:33:16;;;;;;;;;;;;;;;22.26;31.41;96399.91;5009581;28;899;-83
2021/12/07 14:35:42;;;;;;;;;;;;;;;22.25;31.46;96401.19;5011597;28;1887;-79
2021/12/07 14:38:08;;;;;;;;;;;;;;;22.08;31.59;96411.41;5010102;28;847;-82
2021/12/07 14:40:33;;;;;;;;;;;;;;;22.11;31.63;96413.28;5011529;28;946;-81
2021/12/07 14:42:59;;;;;;;;;;;;;;;21.95;31.99;96402.41;5010038;28;999;-82
2021/12/07 14:45:25;;;;;;;;;;;;;;;22.34;31.92;96406.75;5010083;28;1181;-83
2021/12/07 14:47:50;;;;;;;;;;;;;;;22.63;32.17;96393.84;5010615;28;999;-82
2021/12/07 14:50:16;;;;;;;;;;;;;;;22.75;32.08;96383.47;5009736;28;1039;-81
2021/12/07 14:52:41;;;;;;;;;;;;;;;22.47;31.89;96391.50;5010371;28;1000;-81
2021/12/07 14:55:07;;;;;;;;;;;;;;;22.24;32.11;96401.69;5009121;28;1894;-82
2021/12/07 14:57:36;;;;;;;;;;;;;;;22.22;31.29;96399.31;5042676;28;894;-82
2021/12/07 15:00:03;;;;;;;;;;;;;;;22.32;31.45;96397.94;5048694;28;904;-82
2021/12/07 15:02:30;;;;;;;;;;;;;;;22.09;31.43;96402.41;5050777;28;888;-83